sensor_id;sensor_type;location;lat;lon;timestamp;P1;durP1;ratioP1;P2;durP2;ratioP2
47153;SDS011;32907;41.412;2.164;2023-06-10T00:00:04;5.07;;;3.28;;
47153;SDS011;32907;41.412;2.164;2023-06-10T00:02:39;5.13;;;3.33;;
47153;SDS011;32907;41.412;2.164;2023-06-10T00:05:10;6.00;;;3.72;;
47153;SDS011;32907;41.412;2.164;2023-06-10T00:07:38;8.07;;;4.32;;
47153;SDS011;32907;41.412;2.164;2023-06-10T00:10:06;7.15;;;3.58;;
47153;SDS011;32907;41.412;2.164;2023-06-10T00:12:34;8.50;;;4.07;;
47153;SDS011;32907;41.412;2.164;2023-06-10T00:15:05;9.50;;;4.65;;
47153;SDS011;32907;41.412;2.164;2023-06-10T00:17:34;7.55;;;4.90;;
47153;SDS011;32907;41.412;2.164;2023-06-10T00:20:07;8.35;;;4.20;;
47153;SDS011;32907;41.412;2.164;2023-06-10T00:22:40;7.53;;;4.10;;
47153;SDS011;32907;41.412;2.164;2023-06-10T00:25:09;7.75;;;4.38;;
47153;SDS011;32907;41.412;2.164;2023-06-10T00:27:38;7.80;;;4.07;;
47153;SDS011;32907;41.412;2.164;2023-06-10T00:30:08;6.38;;;3.55;;
47153;SDS011;32907;41.412;2.164;2023-06-10T00:32:38;7.05;;;3.95;;
47153;SDS011;32907;41.412;2.164;2023-06-10T00:35:06;5.75;;;3.47;;
47153;SDS011;32907;41.412;2.164;2023-06-10T00:37:35;6.75;;;4.40;;
47153;SDS011;32907;41.412;2.164;2023-06-10T00:40:04;6.32;;;3.72;;
47153;SDS011;32907;41.412;2.164;2023-06-10T00:42:36;5.78;;;3.85;;
47153;SDS011;32907;41.412;2.164;2023-06-10T00:45:05;7.85;;;3.78;;
47153;SDS011;32907;41.412;2.164;2023-06-10T00:47:36;7.05;;;3.70;;
47153;SDS011;32907;41.412;2.164;2023-06-10T00:50:05;6.65;;;3.55;;
47153;SDS011;32907;41.412;2.164;2023-06-10T00:52:34;5.97;;;3.50;;
47153;SDS011;32907;41.412;2.164;2023-06-10T00:55:02;8.18;;;3.30;;
47153;SDS011;32907;41.412;2.164;2023-06-10T00:57:31;4.50;;;2.80;;
47153;SDS011;32907;41.412;2.164;2023-06-10T00:59:59;9.20;;;3.30;;
47153;SDS011;32907;41.412;2.164;2023-06-10T01:02:28;4.95;;;3.25;;
47153;SDS011;32907;41.412;2.164;2023-06-10T01:04:58;6.13;;;3.10;;
47153;SDS011;32907;41.412;2.164;2023-06-10T01:10:54;5.43;;;3.10;;
47153;SDS011;32907;41.412;2.164;2023-06-10T01:13:22;7.70;;;3.20;;
47153;SDS011;32907;41.412;2.164;2023-06-10T01:15:51;5.38;;;3.60;;
47153;SDS011;32907;41.412;2.164;2023-06-10T01:18:20;5.88;;;3.20;;
47153;SDS011;32907;41.412;2.164;2023-06-10T01:20:49;7.82;;;3.33;;
47153;SDS011;32907;41.412;2.164;2023-06-10T01:23:19;6.10;;;2.95;;
47153;SDS011;32907;41.412;2.164;2023-06-10T01:25:57;6.35;;;3.00;;
47153;SDS011;32907;41.412;2.164;2023-06-10T01:28:39;7.35;;;3.38;;
47153;SDS011;32907;41.412;2.164;2023-06-10T01:34:06;6.38;;;3.60;;
47153;SDS011;32907;41.412;2.164;2023-06-10T01:36:36;7.95;;;3.65;;
47153;SDS011;32907;41.412;2.164;2023-06-10T01:39:09;6.63;;;3.60;;
47153;SDS011;32907;41.412;2.164;2023-06-10T01:41:38;7.05;;;3.70;;
47153;SDS011;32907;41.412;2.164;2023-06-10T01:44:08;6.03;;;3.38;;
47153;SDS011;32907;41.412;2.164;2023-06-10T01:46:40;7.03;;;3.25;;
47153;SDS011;32907;41.412;2.164;2023-06-10T01:49:08;6.13;;;3.63;;
47153;SDS011;32907;41.412;2.164;2023-06-10T01:51:36;7.45;;;3.55;;
47153;SDS011;32907;41.412;2.164;2023-06-10T01:54:04;7.03;;;3.80;;
47153;SDS011;32907;41.412;2.164;2023-06-10T01:56:33;5.85;;;3.90;;
47153;SDS011;32907;41.412;2.164;2023-06-10T01:59:01;6.93;;;3.40;;
47153;SDS011;32907;41.412;2.164;2023-06-10T02:01:29;7.00;;;3.85;;
47153;SDS011;32907;41.412;2.164;2023-06-10T02:03:57;7.25;;;3.58;;
47153;SDS011;32907;41.412;2.164;2023-06-10T02:06:25;4.88;;;3.20;;
47153;SDS011;32907;41.412;2.164;2023-06-10T02:08:53;6.93;;;3.17;;
47153;SDS011;32907;41.412;2.164;2023-06-10T02:11:21;5.88;;;3.58;;
47153;SDS011;32907;41.412;2.164;2023-06-10T02:13:49;5.10;;;3.17;;
47153;SDS011;32907;41.412;2.164;2023-06-10T02:16:18;7.38;;;3.53;;
47153;SDS011;32907;41.412;2.164;2023-06-10T02:18:46;7.43;;;3.50;;
47153;SDS011;32907;41.412;2.164;2023-06-10T02:21:16;5.70;;;3.10;;
47153;SDS011;32907;41.412;2.164;2023-06-10T02:23:43;7.43;;;3.53;;
47153;SDS011;32907;41.412;2.164;2023-06-10T02:26:11;4.47;;;3.03;;
47153;SDS011;32907;41.412;2.164;2023-06-10T02:28:43;6.32;;;3.58;;
47153;SDS011;32907;41.412;2.164;2023-06-10T02:31:14;7.18;;;3.28;;
47153;SDS011;32907;41.412;2.164;2023-06-10T02:33:46;6.82;;;3.70;;
47153;SDS011;32907;41.412;2.164;2023-06-10T02:36:15;7.13;;;3.67;;
47153;SDS011;32907;41.412;2.164;2023-06-10T02:38:43;6.70;;;3.60;;
47153;SDS011;32907;41.412;2.164;2023-06-10T02:41:11;9.32;;;3.63;;
47153;SDS011;32907;41.412;2.164;2023-06-10T02:43:40;7.53;;;3.47;;
47153;SDS011;32907;41.412;2.164;2023-06-10T02:46:09;5.07;;;3.53;;
47153;SDS011;32907;41.412;2.164;2023-06-10T02:48:40;6.13;;;3.67;;
47153;SDS011;32907;41.412;2.164;2023-06-10T02:51:12;6.47;;;3.70;;
47153;SDS011;32907;41.412;2.164;2023-06-10T02:53:45;7.55;;;3.85;;
47153;SDS011;32907;41.412;2.164;2023-06-10T02:56:16;5.38;;;3.38;;
47153;SDS011;32907;41.412;2.164;2023-06-10T02:58:44;6.57;;;3.53;;
47153;SDS011;32907;41.412;2.164;2023-06-10T03:01:15;5.40;;;3.72;;
47153;SDS011;32907;41.412;2.164;2023-06-10T03:04:04;5.10;;;3.65;;
47153;SDS011;32907;41.412;2.164;2023-06-10T03:06:33;7.28;;;3.83;;
47153;SDS011;32907;41.412;2.164;2023-06-10T03:09:11;6.07;;;3.42;;
47153;SDS011;32907;41.412;2.164;2023-06-10T03:11:41;5.45;;;3.30;;
47153;SDS011;32907;41.412;2.164;2023-06-10T03:14:09;6.97;;;3.20;;
47153;SDS011;32907;41.412;2.164;2023-06-10T03:16:37;7.90;;;3.53;;
47153;SDS011;32907;41.412;2.164;2023-06-10T03:19:09;6.53;;;3.17;;
47153;SDS011;32907;41.412;2.164;2023-06-10T03:21:43;6.60;;;3.67;;
47153;SDS011;32907;41.412;2.164;2023-06-10T03:24:15;6.03;;;3.22;;
47153;SDS011;32907;41.412;2.164;2023-06-10T03:26:44;6.60;;;3.40;;
47153;SDS011;32907;41.412;2.164;2023-06-10T03:29:13;6.55;;;3.47;;
47153;SDS011;32907;41.412;2.164;2023-06-10T03:31:41;7.25;;;3.60;;
47153;SDS011;32907;41.412;2.164;2023-06-10T03:34:09;4.25;;;3.08;;
47153;SDS011;32907;41.412;2.164;2023-06-10T03:36:37;5.72;;;3.35;;
47153;SDS011;32907;41.412;2.164;2023-06-10T03:39:10;4.15;;;3.00;;
47153;SDS011;32907;41.412;2.164;2023-06-10T03:41:38;5.18;;;3.08;;
47153;SDS011;32907;41.412;2.164;2023-06-10T03:44:07;5.50;;;3.33;;
47153;SDS011;32907;41.412;2.164;2023-06-10T03:46:34;5.40;;;3.22;;
47153;SDS011;32907;41.412;2.164;2023-06-10T03:49:03;7.22;;;3.60;;
47153;SDS011;32907;41.412;2.164;2023-06-10T03:51:33;4.32;;;2.70;;
47153;SDS011;32907;41.412;2.164;2023-06-10T03:54:06;5.35;;;2.95;;
47153;SDS011;32907;41.412;2.164;2023-06-10T03:56:34;4.68;;;2.75;;
47153;SDS011;32907;41.412;2.164;2023-06-10T03:59:02;5.82;;;2.80;;
47153;SDS011;32907;41.412;2.164;2023-06-10T04:01:34;4.20;;;2.85;;
47153;SDS011;32907;41.412;2.164;2023-06-10T04:04:04;5.10;;;2.70;;
47153;SDS011;32907;41.412;2.164;2023-06-10T04:06:34;4.18;;;2.88;;
47153;SDS011;32907;41.412;2.164;2023-06-10T04:09:02;5.03;;;2.70;;
47153;SDS011;32907;41.412;2.164;2023-06-10T04:11:31;4.28;;;2.70;;
47153;SDS011;32907;41.412;2.164;2023-06-10T04:13:59;4.15;;;2.80;;
47153;SDS011;32907;41.412;2.164;2023-06-10T04:16:28;7.05;;;2.90;;
47153;SDS011;32907;41.412;2.164;2023-06-10T04:18:55;3.58;;;2.63;;
47153;SDS011;32907;41.412;2.164;2023-06-10T04:21:24;4.47;;;2.33;;
47153;SDS011;32907;41.412;2.164;2023-06-10T04:23:52;3.92;;;2.63;;
47153;SDS011;32907;41.412;2.164;2023-06-10T04:26:20;4.95;;;2.58;;
47153;SDS011;32907;41.412;2.164;2023-06-10T04:28:51;6.20;;;2.63;;
47153;SDS011;32907;41.412;2.164;2023-06-10T04:31:19;5.43;;;3.10;;
47153;SDS011;32907;41.412;2.164;2023-06-10T04:33:48;4.07;;;2.67;;
47153;SDS011;32907;41.412;2.164;2023-06-10T04:36:16;4.88;;;2.92;;
47153;SDS011;32907;41.412;2.164;2023-06-10T04:38:44;4.13;;;2.60;;
47153;SDS011;32907;41.412;2.164;2023-06-10T04:41:14;3.40;;;2.47;;
47153;SDS011;32907;41.412;2.164;2023-06-10T04:43:42;3.47;;;2.33;;
47153;SDS011;32907;41.412;2.164;2023-06-10T04:46:11;4.45;;;2.65;;
47153;SDS011;32907;41.412;2.164;2023-06-10T04:48:40;5.07;;;2.35;;
47153;SDS011;32907;41.412;2.164;2023-06-10T04:51:09;4.70;;;2.80;;
47153;SDS011;32907;41.412;2.164;2023-06-10T04:53:37;4.63;;;2.60;;
47153;SDS011;32907;41.412;2.164;2023-06-10T04:56:05;3.85;;;2.50;;
47153;SDS011;32907;41.412;2.164;2023-06-10T04:58:35;5.22;;;2.70;;
47153;SDS011;32907;41.412;2.164;2023-06-10T05:01:02;5.43;;;2.55;;
47153;SDS011;32907;41.412;2.164;2023-06-10T05:03:30;4.32;;;2.67;;
47153;SDS011;32907;41.412;2.164;2023-06-10T05:05:58;4.47;;;2.60;;
47153;SDS011;32907;41.412;2.164;2023-06-10T05:08:26;3.78;;;2.38;;
47153;SDS011;32907;41.412;2.164;2023-06-10T05:10:54;5.30;;;2.95;;
47153;SDS011;32907;41.412;2.164;2023-06-10T05:13:22;6.35;;;2.95;;
47153;SDS011;32907;41.412;2.164;2023-06-10T05:15:50;5.53;;;3.25;;
47153;SDS011;32907;41.412;2.164;2023-06-10T05:18:19;7.45;;;3.72;;
47153;SDS011;32907;41.412;2.164;2023-06-10T05:20:48;4.97;;;3.47;;
47153;SDS011;32907;41.412;2.164;2023-06-10T05:23:16;4.63;;;3.00;;
47153;SDS011;32907;41.412;2.164;2023-06-10T05:25:45;5.07;;;2.83;;
47153;SDS011;32907;41.412;2.164;2023-06-10T05:28:13;5.25;;;2.58;;
47153;SDS011;32907;41.412;2.164;2023-06-10T05:30:42;4.28;;;2.35;;
47153;SDS011;32907;41.412;2.164;2023-06-10T05:33:10;4.68;;;2.30;;
47153;SDS011;32907;41.412;2.164;2023-06-10T05:35:40;4.78;;;2.15;;
47153;SDS011;32907;41.412;2.164;2023-06-10T05:38:08;6.00;;;2.15;;
47153;SDS011;32907;41.412;2.164;2023-06-10T05:40:36;6.03;;;2.45;;
47153;SDS011;32907;41.412;2.164;2023-06-10T05:43:04;4.88;;;2.10;;
47153;SDS011;32907;41.412;2.164;2023-06-10T05:45:32;3.58;;;2.05;;
47153;SDS011;32907;41.412;2.164;2023-06-10T05:48:00;3.35;;;2.10;;
47153;SDS011;32907;41.412;2.164;2023-06-10T05:50:28;3.28;;;2.17;;
47153;SDS011;32907;41.412;2.164;2023-06-10T05:52:55;4.88;;;2.22;;
47153;SDS011;32907;41.412;2.164;2023-06-10T05:55:23;5.15;;;2.15;;
47153;SDS011;32907;41.412;2.164;2023-06-10T05:57:58;5.78;;;2.40;;
47153;SDS011;32907;41.412;2.164;2023-06-10T06:00:31;4.13;;;1.80;;
47153;SDS011;32907;41.412;2.164;2023-06-10T06:03:02;5.15;;;2.13;;
47153;SDS011;32907;41.412;2.164;2023-06-10T06:05:31;8.88;;;2.35;;
47153;SDS011;32907;41.412;2.164;2023-06-10T06:08:02;3.67;;;1.90;;
47153;SDS011;32907;41.412;2.164;2023-06-10T06:10:30;4.18;;;1.95;;
47153;SDS011;32907;41.412;2.164;2023-06-10T06:12:59;3.45;;;2.03;;
47153;SDS011;32907;41.412;2.164;2023-06-10T06:15:30;4.30;;;1.95;;
47153;SDS011;32907;41.412;2.164;2023-06-10T06:17:57;3.45;;;1.90;;
47153;SDS011;32907;41.412;2.164;2023-06-10T06:20:25;4.85;;;2.22;;
47153;SDS011;32907;41.412;2.164;2023-06-10T06:22:53;4.03;;;1.90;;
47153;SDS011;32907;41.412;2.164;2023-06-10T06:25:22;3.92;;;1.77;;
47153;SDS011;32907;41.412;2.164;2023-06-10T06:27:50;3.63;;;1.83;;
47153;SDS011;32907;41.412;2.164;2023-06-10T06:30:18;6.03;;;2.15;;
47153;SDS011;32907;41.412;2.164;2023-06-10T06:32:46;5.63;;;2.10;;
47153;SDS011;32907;41.412;2.164;2023-06-10T06:35:14;4.35;;;2.17;;
47153;SDS011;32907;41.412;2.164;2023-06-10T06:37:42;6.00;;;3.00;;
47153;SDS011;32907;41.412;2.164;2023-06-10T06:40:17;5.35;;;4.22;;
47153;SDS011;32907;41.412;2.164;2023-06-10T06:42:46;6.20;;;5.05;;
47153;SDS011;32907;41.412;2.164;2023-06-10T06:45:21;5.00;;;4.38;;
47153;SDS011;32907;41.412;2.164;2023-06-10T06:47:49;9.10;;;4.10;;
47153;SDS011;32907;41.412;2.164;2023-06-10T06:50:17;6.22;;;3.35;;
47153;SDS011;32907;41.412;2.164;2023-06-10T06:52:45;5.35;;;2.83;;
47153;SDS011;32907;41.412;2.164;2023-06-10T06:55:13;5.10;;;3.28;;
47153;SDS011;32907;41.412;2.164;2023-06-10T06:57:41;8.05;;;3.40;;
47153;SDS011;32907;41.412;2.164;2023-06-10T07:00:09;7.15;;;3.65;;
47153;SDS011;32907;41.412;2.164;2023-06-10T07:02:38;6.88;;;3.30;;
47153;SDS011;32907;41.412;2.164;2023-06-10T07:05:06;7.18;;;2.88;;
47153;SDS011;32907;41.412;2.164;2023-06-10T07:07:36;6.50;;;3.33;;
47153;SDS011;32907;41.412;2.164;2023-06-10T07:10:04;8.68;;;3.75;;
47153;SDS011;32907;41.412;2.164;2023-06-10T07:12:33;6.10;;;3.60;;
47153;SDS011;32907;41.412;2.164;2023-06-10T07:15:01;8.65;;;3.80;;
47153;SDS011;32907;41.412;2.164;2023-06-10T07:17:29;9.15;;;3.60;;
47153;SDS011;32907;41.412;2.164;2023-06-10T07:19:57;12.02;;;4.43;;
47153;SDS011;32907;41.412;2.164;2023-06-10T07:22:27;9.35;;;3.65;;
47153;SDS011;32907;41.412;2.164;2023-06-10T07:25:01;10.75;;;3.55;;
47153;SDS011;32907;41.412;2.164;2023-06-10T07:27:29;7.13;;;2.97;;
47153;SDS011;32907;41.412;2.164;2023-06-10T07:29:58;8.10;;;3.25;;
47153;SDS011;32907;41.412;2.164;2023-06-10T07:32:26;7.40;;;3.20;;
47153;SDS011;32907;41.412;2.164;2023-06-10T07:34:54;6.93;;;3.35;;
47153;SDS011;32907;41.412;2.164;2023-06-10T07:37:22;10.50;;;4.80;;
47153;SDS011;32907;41.412;2.164;2023-06-10T07:39:50;8.40;;;4.57;;
47153;SDS011;32907;41.412;2.164;2023-06-10T07:42:38;7.93;;;4.30;;
47153;SDS011;32907;41.412;2.164;2023-06-10T07:45:07;8.32;;;3.78;;
47153;SDS011;32907;41.412;2.164;2023-06-10T07:47:35;15.52;;;4.57;;
47153;SDS011;32907;41.412;2.164;2023-06-10T07:50:03;5.57;;;3.25;;
47153;SDS011;32907;41.412;2.164;2023-06-10T07:52:31;6.38;;;3.22;;
47153;SDS011;32907;41.412;2.164;2023-06-10T07:54:59;6.10;;;2.88;;
47153;SDS011;32907;41.412;2.164;2023-06-10T07:57:27;9.55;;;4.20;;
47153;SDS011;32907;41.412;2.164;2023-06-10T07:59:55;16.42;;;5.30;;
47153;SDS011;32907;41.412;2.164;2023-06-10T08:02:25;5.55;;;3.80;;
47153;SDS011;32907;41.412;2.164;2023-06-10T08:04:53;5.43;;;3.65;;
47153;SDS011;32907;41.412;2.164;2023-06-10T08:07:22;7.53;;;3.63;;
47153;SDS011;32907;41.412;2.164;2023-06-10T08:09:51;6.22;;;3.92;;
47153;SDS011;32907;41.412;2.164;2023-06-10T08:12:18;9.02;;;4.35;;
47153;SDS011;32907;41.412;2.164;2023-06-10T08:14:47;7.80;;;4.05;;
47153;SDS011;32907;41.412;2.164;2023-06-10T08:17:15;10.35;;;5.13;;
47153;SDS011;32907;41.412;2.164;2023-06-10T08:19:43;14.15;;;5.07;;
47153;SDS011;32907;41.412;2.164;2023-06-10T08:22:11;10.65;;;4.57;;
47153;SDS011;32907;41.412;2.164;2023-06-10T08:24:39;10.82;;;5.18;;
47153;SDS011;32907;41.412;2.164;2023-06-10T08:27:08;20.13;;;10.70;;
47153;SDS011;32907;41.412;2.164;2023-06-10T08:29:36;14.30;;;8.57;;
47153;SDS011;32907;41.412;2.164;2023-06-10T08:32:04;9.27;;;5.10;;
47153;SDS011;32907;41.412;2.164;2023-06-10T08:34:35;8.75;;;5.18;;
47153;SDS011;32907;41.412;2.164;2023-06-10T08:37:03;6.63;;;3.92;;
47153;SDS011;32907;41.412;2.164;2023-06-10T08:39:32;6.55;;;3.55;;
47153;SDS011;32907;41.412;2.164;2023-06-10T08:42:03;9.57;;;3.42;;
47153;SDS011;32907;41.412;2.164;2023-06-10T08:44:51;5.35;;;3.05;;
47153;SDS011;32907;41.412;2.164;2023-06-10T08:47:23;6.90;;;3.58;;
47153;SDS011;32907;41.412;2.164;2023-06-10T08:49:52;9.40;;;4.25;;
47153;SDS011;32907;41.412;2.164;2023-06-10T08:52:23;10.88;;;5.20;;
47153;SDS011;32907;41.412;2.164;2023-06-10T08:54:57;10.02;;;4.25;;
47153;SDS011;32907;41.412;2.164;2023-06-10T08:57:27;15.68;;;4.72;;
47153;SDS011;32907;41.412;2.164;2023-06-10T08:59:57;7.85;;;3.67;;
47153;SDS011;32907;41.412;2.164;2023-06-10T09:02:25;6.75;;;3.58;;
47153;SDS011;32907;41.412;2.164;2023-06-10T09:04:55;9.70;;;3.50;;
47153;SDS011;32907;41.412;2.164;2023-06-10T09:07:25;10.70;;;4.25;;
47153;SDS011;32907;41.412;2.164;2023-06-10T09:09:54;4.32;;;2.80;;
47153;SDS011;32907;41.412;2.164;2023-06-10T09:12:23;8.50;;;3.83;;
47153;SDS011;32907;41.412;2.164;2023-06-10T09:14:51;9.27;;;5.55;;
47153;SDS011;32907;41.412;2.164;2023-06-10T09:17:19;7.50;;;4.10;;
47153;SDS011;32907;41.412;2.164;2023-06-10T09:19:47;10.45;;;4.38;;
47153;SDS011;32907;41.412;2.164;2023-06-10T09:22:17;7.25;;;3.47;;
47153;SDS011;32907;41.412;2.164;2023-06-10T09:24:46;6.53;;;4.45;;
47153;SDS011;32907;41.412;2.164;2023-06-10T09:27:15;7.88;;;4.72;;
47153;SDS011;32907;41.412;2.164;2023-06-10T09:29:47;7.65;;;4.85;;
47153;SDS011;32907;41.412;2.164;2023-06-10T09:32:18;8.10;;;4.25;;
47153;SDS011;32907;41.412;2.164;2023-06-10T09:34:47;13.20;;;3.65;;
47153;SDS011;32907;41.412;2.164;2023-06-10T09:37:20;7.47;;;3.30;;
47153;SDS011;32907;41.412;2.164;2023-06-10T09:40:05;5.38;;;3.28;;
47153;SDS011;32907;41.412;2.164;2023-06-10T09:42:37;7.20;;;3.83;;
47153;SDS011;32907;41.412;2.164;2023-06-10T09:45:06;11.80;;;5.68;;
47153;SDS011;32907;41.412;2.164;2023-06-10T09:47:34;8.70;;;4.55;;
47153;SDS011;32907;41.412;2.164;2023-06-10T09:50:02;9.23;;;4.25;;
47153;SDS011;32907;41.412;2.164;2023-06-10T09:52:31;10.05;;;3.65;;
47153;SDS011;32907;41.412;2.164;2023-06-10T09:55:01;8.00;;;3.25;;
47153;SDS011;32907;41.412;2.164;2023-06-10T09:57:30;5.47;;;2.85;;
47153;SDS011;32907;41.412;2.164;2023-06-10T10:00:07;6.88;;;3.03;;
47153;SDS011;32907;41.412;2.164;2023-06-10T10:02:50;6.15;;;2.95;;
47153;SDS011;32907;41.412;2.164;2023-06-10T10:05:21;5.32;;;2.35;;
47153;SDS011;32907;41.412;2.164;2023-06-10T10:07:51;5.25;;;2.58;;
47153;SDS011;32907;41.412;2.164;2023-06-10T10:10:20;5.80;;;2.60;;
47153;SDS011;32907;41.412;2.164;2023-06-10T10:12:56;5.20;;;2.10;;
47153;SDS011;32907;41.412;2.164;2023-06-10T10:15:25;4.82;;;2.70;;
47153;SDS011;32907;41.412;2.164;2023-06-10T10:18:09;3.75;;;2.35;;
47153;SDS011;32907;41.412;2.164;2023-06-10T10:20:45;4.05;;;2.30;;
47153;SDS011;32907;41.412;2.164;2023-06-10T10:23:21;4.80;;;2.80;;
47153;SDS011;32907;41.412;2.164;2023-06-10T10:25:57;5.55;;;2.70;;
47153;SDS011;32907;41.412;2.164;2023-06-10T10:28:29;6.55;;;2.95;;
47153;SDS011;32907;41.412;2.164;2023-06-10T10:31:08;3.83;;;2.60;;
47153;SDS011;32907;41.412;2.164;2023-06-10T10:33:42;3.70;;;2.50;;
47153;SDS011;32907;41.412;2.164;2023-06-10T10:36:19;6.63;;;3.20;;
47153;SDS011;32907;41.412;2.164;2023-06-10T10:38:48;8.70;;;3.00;;
47153;SDS011;32907;41.412;2.164;2023-06-10T10:41:19;6.88;;;3.85;;
47153;SDS011;32907;41.412;2.164;2023-06-10T10:43:48;9.07;;;4.45;;
47153;SDS011;32907;41.412;2.164;2023-06-10T10:46:19;8.77;;;4.10;;
47153;SDS011;32907;41.412;2.164;2023-06-10T10:48:51;7.93;;;4.07;;
47153;SDS011;32907;41.412;2.164;2023-06-10T10:51:22;4.03;;;3.00;;
47153;SDS011;32907;41.412;2.164;2023-06-10T10:54:09;6.97;;;3.78;;
47153;SDS011;32907;41.412;2.164;2023-06-10T10:56:39;6.75;;;3.10;;
47153;SDS011;32907;41.412;2.164;2023-06-10T10:59:07;7.60;;;3.33;;
47153;SDS011;32907;41.412;2.164;2023-06-10T11:01:40;10.50;;;4.05;;
47153;SDS011;32907;41.412;2.164;2023-06-10T11:04:09;5.43;;;3.78;;
47153;SDS011;32907;41.412;2.164;2023-06-10T11:06:38;9.23;;;4.25;;
47153;SDS011;32907;41.412;2.164;2023-06-10T11:09:27;7.22;;;3.75;;
47153;SDS011;32907;41.412;2.164;2023-06-10T11:11:57;5.25;;;3.63;;
47153;SDS011;32907;41.412;2.164;2023-06-10T11:14:27;6.75;;;3.78;;
47153;SDS011;32907;41.412;2.164;2023-06-10T11:16:56;8.75;;;4.72;;
47153;SDS011;32907;41.412;2.164;2023-06-10T11:19:35;9.63;;;5.50;;
47153;SDS011;32907;41.412;2.164;2023-06-10T11:22:08;6.85;;;4.60;;
47153;SDS011;32907;41.412;2.164;2023-06-10T11:24:37;8.88;;;5.55;;
47153;SDS011;32907;41.412;2.164;2023-06-10T11:27:18;7.43;;;4.78;;
47153;SDS011;32907;41.412;2.164;2023-06-10T11:30:33;6.97;;;4.53;;
47153;SDS011;32907;41.412;2.164;2023-06-10T11:32:54;7.28;;;5.20;;
47153;SDS011;32907;41.412;2.164;2023-06-10T11:35:27;8.82;;;5.97;;
47153;SDS011;32907;41.412;2.164;2023-06-10T11:37:58;10.05;;;6.65;;
47153;SDS011;32907;41.412;2.164;2023-06-10T11:40:26;11.93;;;7.45;;
47153;SDS011;32907;41.412;2.164;2023-06-10T11:42:57;9.43;;;7.72;;
47153;SDS011;32907;41.412;2.164;2023-06-10T11:45:25;10.05;;;7.85;;
47153;SDS011;32907;41.412;2.164;2023-06-10T11:47:55;15.25;;;9.68;;
47153;SDS011;32907;41.412;2.164;2023-06-10T11:50:31;14.68;;;10.57;;
47153;SDS011;32907;41.412;2.164;2023-06-10T11:53:00;16.42;;;11.82;;
47153;SDS011;32907;41.412;2.164;2023-06-10T11:55:47;14.23;;;11.55;;
47153;SDS011;32907;41.412;2.164;2023-06-10T12:00:54;11.15;;;8.50;;
47153;SDS011;32907;41.412;2.164;2023-06-10T12:03:25;9.50;;;6.97;;
47153;SDS011;32907;41.412;2.164;2023-06-10T12:06:01;13.30;;;8.05;;
47153;SDS011;32907;41.412;2.164;2023-06-10T12:08:31;14.32;;;8.55;;
47153;SDS011;32907;41.412;2.164;2023-06-10T12:11:03;13.90;;;8.68;;
47153;SDS011;32907;41.412;2.164;2023-06-10T12:13:31;13.18;;;8.43;;
47153;SDS011;32907;41.412;2.164;2023-06-10T12:16:08;11.65;;;8.32;;
47153;SDS011;32907;41.412;2.164;2023-06-10T12:18:37;11.30;;;7.85;;
47153;SDS011;32907;41.412;2.164;2023-06-10T12:21:15;11.27;;;6.93;;
47153;SDS011;32907;41.412;2.164;2023-06-10T12:24:04;10.63;;;7.40;;
47153;SDS011;32907;41.412;2.164;2023-06-10T12:26:36;13.30;;;7.15;;
47153;SDS011;32907;41.412;2.164;2023-06-10T12:32:03;14.98;;;7.97;;
47153;SDS011;32907;41.412;2.164;2023-06-10T12:34:35;11.23;;;6.95;;
47153;SDS011;32907;41.412;2.164;2023-06-10T12:37:07;13.73;;;7.25;;
47153;SDS011;32907;41.412;2.164;2023-06-10T12:39:40;10.73;;;8.07;;
47153;SDS011;32907;41.412;2.164;2023-06-10T12:42:11;13.77;;;9.85;;
47153;SDS011;32907;41.412;2.164;2023-06-10T12:44:40;11.10;;;9.15;;
47153;SDS011;32907;41.412;2.164;2023-06-10T12:47:09;10.65;;;8.30;;
47153;SDS011;32907;41.412;2.164;2023-06-10T12:49:39;10.75;;;6.43;;
47153;SDS011;32907;41.412;2.164;2023-06-10T12:52:07;9.40;;;6.28;;
47153;SDS011;32907;41.412;2.164;2023-06-10T12:54:35;12.88;;;7.75;;
47153;SDS011;32907;41.412;2.164;2023-06-10T12:57:06;19.35;;;10.70;;
47153;SDS011;32907;41.412;2.164;2023-06-10T12:59:34;18.98;;;12.18;;
47153;SDS011;32907;41.412;2.164;2023-06-10T13:02:02;18.20;;;13.30;;
47153;SDS011;32907;41.412;2.164;2023-06-10T13:04:31;12.35;;;10.68;;
47153;SDS011;32907;41.412;2.164;2023-06-10T13:06:59;11.77;;;9.85;;
47153;SDS011;32907;41.412;2.164;2023-06-10T13:09:28;12.30;;;8.15;;
47153;SDS011;32907;41.412;2.164;2023-06-10T13:11:56;10.88;;;7.65;;
47153;SDS011;32907;41.412;2.164;2023-06-10T13:14:24;11.25;;;7.65;;
47153;SDS011;32907;41.412;2.164;2023-06-10T13:16:52;8.57;;;6.40;;
47153;SDS011;32907;41.412;2.164;2023-06-10T13:19:22;9.15;;;6.47;;
47153;SDS011;32907;41.412;2.164;2023-06-10T13:21:50;10.00;;;6.30;;
47153;SDS011;32907;41.412;2.164;2023-06-10T13:24:20;10.55;;;6.45;;
47153;SDS011;32907;41.412;2.164;2023-06-10T13:26:47;9.35;;;6.63;;
47153;SDS011;32907;41.412;2.164;2023-06-10T13:29:16;9.43;;;5.93;;
47153;SDS011;32907;41.412;2.164;2023-06-10T13:31:44;7.90;;;5.10;;
47153;SDS011;32907;41.412;2.164;2023-06-10T13:34:12;10.48;;;5.80;;
47153;SDS011;32907;41.412;2.164;2023-06-10T13:36:42;10.65;;;5.88;;
47153;SDS011;32907;41.412;2.164;2023-06-10T13:39:12;6.50;;;4.90;;
47153;SDS011;32907;41.412;2.164;2023-06-10T13:41:41;9.18;;;5.45;;
47153;SDS011;32907;41.412;2.164;2023-06-10T13:44:09;7.85;;;5.35;;
47153;SDS011;32907;41.412;2.164;2023-06-10T13:46:37;9.23;;;5.72;;
47153;SDS011;32907;41.412;2.164;2023-06-10T13:49:05;10.35;;;5.93;;
47153;SDS011;32907;41.412;2.164;2023-06-10T13:51:34;7.93;;;5.05;;
47153;SDS011;32907;41.412;2.164;2023-06-10T13:54:03;7.40;;;5.18;;
47153;SDS011;32907;41.412;2.164;2023-06-10T13:56:32;9.75;;;5.03;;
47153;SDS011;32907;41.412;2.164;2023-06-10T13:59:05;10.43;;;6.78;;
47153;SDS011;32907;41.412;2.164;2023-06-10T14:01:34;12.23;;;6.95;;
47153;SDS011;32907;41.412;2.164;2023-06-10T14:04:03;13.23;;;7.45;;
47153;SDS011;32907;41.412;2.164;2023-06-10T14:06:31;13.10;;;7.20;;
47153;SDS011;32907;41.412;2.164;2023-06-10T14:09:02;8.07;;;6.22;;
47153;SDS011;32907;41.412;2.164;2023-06-10T14:11:30;8.13;;;5.65;;
47153;SDS011;32907;41.412;2.164;2023-06-10T14:14:01;8.13;;;5.50;;
47153;SDS011;32907;41.412;2.164;2023-06-10T14:16:29;8.10;;;4.93;;
47153;SDS011;32907;41.412;2.164;2023-06-10T14:18:57;8.07;;;5.43;;
47153;SDS011;32907;41.412;2.164;2023-06-10T14:21:25;9.00;;;5.15;;
47153;SDS011;32907;41.412;2.164;2023-06-10T14:23:56;9.38;;;5.20;;
47153;SDS011;32907;41.412;2.164;2023-06-10T14:26:24;9.98;;;4.90;;
47153;SDS011;32907;41.412;2.164;2023-06-10T14:28:53;8.45;;;4.63;;
47153;SDS011;32907;41.412;2.164;2023-06-10T14:31:21;7.47;;;4.22;;
47153;SDS011;32907;41.412;2.164;2023-06-10T14:33:50;10.23;;;4.60;;
47153;SDS011;32907;41.412;2.164;2023-06-10T14:36:19;6.68;;;4.00;;
47153;SDS011;32907;41.412;2.164;2023-06-10T14:38:47;5.28;;;3.63;;
47153;SDS011;32907;41.412;2.164;2023-06-10T14:41:14;8.38;;;4.05;;
47153;SDS011;32907;41.412;2.164;2023-06-10T14:43:42;8.20;;;4.07;;
47153;SDS011;32907;41.412;2.164;2023-06-10T14:46:11;7.63;;;3.90;;
47153;SDS011;32907;41.412;2.164;2023-06-10T14:48:38;7.72;;;4.35;;
47153;SDS011;32907;41.412;2.164;2023-06-10T14:51:06;9.30;;;4.60;;
47153;SDS011;32907;41.412;2.164;2023-06-10T14:53:35;7.57;;;4.95;;
47153;SDS011;32907;41.412;2.164;2023-06-10T14:56:03;9.13;;;4.45;;
47153;SDS011;32907;41.412;2.164;2023-06-10T14:58:32;6.85;;;4.55;;
47153;SDS011;32907;41.412;2.164;2023-06-10T15:01:01;7.32;;;4.03;;
47153;SDS011;32907;41.412;2.164;2023-06-10T15:03:29;8.77;;;4.57;;
47153;SDS011;32907;41.412;2.164;2023-06-10T15:05:57;7.07;;;4.50;;
47153;SDS011;32907;41.412;2.164;2023-06-10T15:08:28;7.85;;;4.47;;
47153;SDS011;32907;41.412;2.164;2023-06-10T15:10:55;7.70;;;5.30;;
47153;SDS011;32907;41.412;2.164;2023-06-10T15:13:24;9.85;;;6.90;;